createdAt,value
2023-03-15T00:00:11.994Z,100722.78
2023-03-15T00:02:58.135Z,100724.53
2023-03-15T00:05:43.934Z,100724.53
2023-03-15T00:08:29.946Z,100727.25
2023-03-15T00:11:16.389Z,100732.38
2023-03-15T00:14:03.923Z,100728.09
2023-03-15T00:16:49.956Z,100737.63
2023-03-15T00:19:35.983Z,100729.78
2023-03-15T00:22:23.270Z,100729.03
2023-03-15T00:25:09.616Z,100726.22
2023-03-15T00:27:55.424Z,100729.59
2023-03-15T00:30:42.668Z,100724.38
2023-03-15T00:33:28.614Z,100719.88
2023-03-15T00:36:14.584Z,100718.78
2023-03-15T00:39:00.884Z,100723.03
2023-03-15T00:41:47.466Z,100720.72
2023-03-15T00:44:33.660Z,100717.56
2023-03-15T00:47:20.677Z,100717.13
2023-03-15T00:50:06.865Z,100711.53
2023-03-15T00:52:52.864Z,100699.59
2023-03-15T00:55:39.132Z,100685.03
2023-03-15T00:58:27.520Z,100667.94
2023-03-15T01:01:14.216Z,100651.97
2023-03-15T01:04:02.158Z,100638.13
2023-03-15T01:06:48.457Z,100613.34
2023-03-15T01:09:34.701Z,100601.75
2023-03-15T01:12:20.476Z,100581.47
2023-03-15T01:15:07.695Z,100576.69
2023-03-15T01:17:53.796Z,100551.97
2023-03-15T01:20:41.031Z,100542.81
2023-03-15T01:23:27.008Z,100527.94
2023-03-15T01:26:13.548Z,100525.09
2023-03-15T01:28:59.780Z,100515.06
2023-03-15T01:31:46.484Z,100513.06
2023-03-15T01:34:32.524Z,100502.50
2023-03-15T01:37:19.957Z,100490.91
2023-03-15T01:40:07.175Z,100474.88
2023-03-15T01:42:54.158Z,100454.31
2023-03-15T01:45:52.917Z,100449.09
2023-03-15T01:48:40.187Z,100439.16
2023-03-15T01:51:28.233Z,100428.47
2023-03-15T01:54:17.860Z,100428.47
2023-03-15T01:57:05.426Z,100414.41
2023-03-15T01:59:52.010Z,100415.25
2023-03-15T02:02:39.117Z,100413.59
2023-03-15T02:05:25.412Z,100418.19
2023-03-15T02:08:11.770Z,100412.75
2023-03-15T02:10:59.652Z,100416.09
2023-03-15T02:13:46.194Z,100413.59
2023-03-15T02:16:32.379Z,100414.63
2023-03-15T02:19:26.670Z,100429.41
2023-03-15T02:22:16.324Z,100432.03
2023-03-15T02:25:03.082Z,100444.19
2023-03-15T02:27:50.198Z,100447.75
2023-03-15T02:30:36.124Z,100454.66
2023-03-15T02:33:22.434Z,100455.63
2023-03-15T02:36:09.385Z,100467.03
2023-03-15T02:38:56.648Z,100465.38
2023-03-15T02:41:43.547Z,100467.22
2023-03-15T02:44:31.864Z,100487.44
2023-03-15T02:47:19.793Z,100494.56
2023-03-15T02:50:07.585Z,100503.28
2023-03-15T02:52:53.731Z,100513.03
2023-03-15T02:55:41.780Z,100514.06
2023-03-15T02:58:27.677Z,100524.53
2023-03-15T03:01:15.414Z,100529.03
2023-03-15T03:04:01.250Z,100538.06
2023-03-15T03:06:47.204Z,100542.56
2023-03-15T03:09:38.058Z,100556.03
2023-03-15T03:12:24.144Z,100566.72
2023-03-15T03:15:10.478Z,100581.97
2023-03-15T03:17:58.037Z,100594.41
2023-03-15T03:20:46.087Z,100624.25
2023-03-15T03:23:32.332Z,100643.28
2023-03-15T03:26:19.350Z,100669.66
2023-03-15T03:29:10.185Z,100694.22
2023-03-15T03:31:56.821Z,100724.34
2023-03-15T03:34:48.237Z,100750.59
2023-03-15T03:37:35.764Z,100767.44
2023-03-15T03:40:43.386Z,100798.94
2023-03-15T03:43:29.744Z,100826.97
2023-03-15T03:46:16.189Z,100853.31
2023-03-15T03:49:07.571Z,100869.69
2023-03-15T03:51:55.667Z,100891.47
2023-03-15T03:54:42.569Z,100914.94
2023-03-15T03:57:28.911Z,100938.50
2023-03-15T04:00:15.717Z,100962.75
2023-03-15T04:03:02.663Z,100977.50
2023-03-15T04:05:52.741Z,100996.50
2023-03-15T04:08:42.162Z,101003.50
2023-03-15T04:11:31.629Z,101019.97
2023-03-15T04:14:23.113Z,101038.03
2023-03-15T04:17:09.657Z,101045.84
2023-03-15T04:19:56.111Z,101067.47
2023-03-15T04:22:49.587Z,101081.22
2023-03-15T04:25:43.411Z,101086.38
2023-03-15T04:28:48.027Z,101098.44
2023-03-15T04:31:52.760Z,101114.06
2023-03-15T04:34:43.540Z,101133.16
2023-03-15T04:38:03.912Z,101139.03
2023-03-15T04:41:11.138Z,101146.03
2023-03-15T04:44:16.650Z,101153.81
2023-03-15T04:47:15.639Z,101165.97
2023-03-15T04:50:31.815Z,101164.13
2023-03-15T04:53:34.167Z,101185.00
2023-03-15T04:56:31.732Z,101191.81
2023-03-15T04:59:29.390Z,101200.44
2023-03-15T05:02:32.943Z,101215.41
2023-03-15T05:05:54.265Z,101211.94
2023-03-15T05:08:56.159Z,101216.16
2023-03-15T05:11:55.399Z,101237.13
2023-03-15T05:15:08.308Z,101237.97
2023-03-15T05:18:09.959Z,101249.28
2023-03-15T05:21:22.165Z,101256.31
2023-03-15T05:24:27.107Z,101263.16
2023-03-15T05:27:19.888Z,101266.88
2023-03-15T05:30:24.658Z,101264.00
2023-03-15T05:33:24.606Z,101285.88
2023-03-15T05:36:35.398Z,101290.13
2023-03-15T05:39:41.733Z,101293.53
2023-03-15T05:42:37.208Z,101299.75
2023-03-15T05:45:44.543Z,101312.72
2023-03-15T05:48:53.748Z,101324.81
2023-03-15T05:52:03.303Z,101334.44
2023-03-15T05:55:05.028Z,101350.09
2023-03-15T05:58:09.348Z,101350.94
2023-03-15T06:01:21.774Z,101354.31
2023-03-15T06:04:29.125Z,101369.19
2023-03-15T06:07:16.695Z,101374.44
2023-03-15T06:10:03.060Z,101381.38
2023-03-15T06:12:50.204Z,101390.66
2023-03-15T06:15:38.423Z,101400.00
2023-03-15T06:18:26.157Z,101404.31
2023-03-15T06:21:12.067Z,101415.41
2023-03-15T06:23:58.318Z,101422.00
2023-03-15T06:26:44.408Z,101438.28
2023-03-15T06:29:30.762Z,101442.53
2023-03-15T06:32:19.618Z,101452.75
2023-03-15T06:35:06.484Z,101461.16
2023-03-15T06:37:52.981Z,101472.25
2023-03-15T06:40:38.820Z,101482.84
2023-03-15T06:43:24.668Z,101488.75
2023-03-15T06:46:10.671Z,101492.25
2023-03-15T06:48:58.421Z,101498.16
2023-03-15T06:51:45.822Z,101499.94
2023-03-15T06:54:31.924Z,101502.72
2023-03-15T06:57:18.757Z,101496.47
2023-03-15T07:00:11.150Z,101502.66
2023-03-15T07:02:57.494Z,101507.22
2023-03-15T07:05:45.562Z,101510.59
2023-03-15T07:08:31.665Z,101512.53
2023-03-15T07:11:17.660Z,101519.31
2023-03-15T07:14:03.577Z,101519.91
2023-03-15T07:16:49.716Z,101525.25
2023-03-15T07:19:39.187Z,101527.41
2023-03-15T07:22:28.843Z,101536.56
2023-03-15T07:25:14.633Z,101533.00
2023-03-15T07:28:00.635Z,101536.09
2023-03-15T07:30:53.044Z,101536.59
2023-03-15T07:33:39.221Z,101553.03
2023-03-15T07:36:25.047Z,101549.31
2023-03-15T07:39:12.383Z,101540.34
2023-03-15T07:41:58.159Z,101543.91
2023-03-15T07:44:51.053Z,101529.50
2023-03-15T07:47:37.089Z,101534.28
2023-03-15T07:50:23.246Z,101545.22
2023-03-15T07:53:09.109Z,101540.72
2023-03-15T07:55:56.387Z,101535.13
2023-03-15T07:58:42.538Z,101523.63
2023-03-15T08:01:28.336Z,101520.56
2023-03-15T08:04:14.163Z,101515.97
2023-03-15T08:07:01.133Z,101510.13
2023-03-15T08:09:48.308Z,101508.66
2023-03-15T08:12:36.022Z,101497.66
2023-03-15T08:15:21.986Z,101495.31
2023-03-15T08:18:07.979Z,101491.50
2023-03-15T08:20:53.922Z,101480.44
2023-03-15T08:23:40.507Z,101466.97
2023-03-15T08:26:26.324Z,101458.97
2023-03-15T08:29:13.892Z,101450.34
2023-03-15T08:32:00.062Z,101427.91
2023-03-15T08:34:46.213Z,101415.22
2023-03-15T08:37:32.461Z,101406.88
2023-03-15T08:40:19.448Z,101403.66
2023-03-15T08:43:05.602Z,101389.97
2023-03-15T08:46:01.174Z,101370.00
2023-03-15T08:48:47.691Z,101361.34
2023-03-15T08:51:33.824Z,101349.34
2023-03-15T08:54:19.737Z,101338.09
2023-03-15T08:57:06.056Z,101323.41
2023-03-15T08:59:51.832Z,101308.66
2023-03-15T09:02:38.988Z,101284.94
2023-03-15T09:05:25.861Z,101256.22
2023-03-15T09:08:12.056Z,101217.03
2023-03-15T09:10:58.482Z,101191.03
2023-03-15T09:13:44.340Z,101165.75
2023-03-15T09:16:30.068Z,101128.00
2023-03-15T09:19:17.206Z,101094.19
2023-03-15T09:22:16.222Z,101065.50
2023-03-15T09:25:03.119Z,101014.19
2023-03-15T09:27:49.256Z,100980.19
2023-03-15T09:30:35.492Z,100954.81
2023-03-15T09:33:22.393Z,100942.56
2023-03-15T09:36:09.699Z,100934.50
2023-03-15T09:38:55.453Z,100921.41
2023-03-15T09:41:42.688Z,100909.28
2023-03-15T09:44:40.391Z,100905.56
2023-03-15T09:47:29.433Z,100899.16
2023-03-15T09:50:17.547Z,100911.41
2023-03-15T09:53:05.428Z,100912.06
2023-03-15T09:55:51.368Z,100926.28
2023-03-15T09:58:37.323Z,100928.72
2023-03-15T10:01:23.513Z,100937.34
2023-03-15T10:04:11.933Z,100938.06
2023-03-15T10:06:58.449Z,100940.50
2023-03-15T10:09:45.942Z,100940.41
2023-03-15T10:12:32.723Z,100940.47
2023-03-15T10:15:30.903Z,100937.72
2023-03-15T10:18:19.042Z,100944.41
2023-03-15T10:21:07.670Z,100951.88
2023-03-15T10:23:54.234Z,100965.53
2023-03-15T10:29:31.090Z,100984.66
2023-03-15T10:32:18.883Z,100998.88
2023-03-15T10:35:07.426Z,101014.03
2023-03-15T10:37:53.388Z,101041.75
2023-03-15T10:40:40.265Z,101041.25
2023-03-15T10:43:29.899Z,101040.50
2023-03-15T10:46:22.295Z,101048.97
2023-03-15T10:49:12.154Z,101036.09
2023-03-15T10:51:58.556Z,101040.28
2023-03-15T10:54:45.012Z,101036.72
2023-03-15T10:57:32.941Z,101039.09
2023-03-15T11:00:26.933Z,101036.59
2023-03-15T11:03:17.133Z,101039.50
2023-03-15T11:06:04.656Z,101049.88
2023-03-15T11:08:50.624Z,101050.56
2023-03-15T11:11:49.408Z,101035.16
2023-03-15T11:14:36.238Z,101043.13
2023-03-15T11:17:25.187Z,101056.91
2023-03-15T11:20:18.420Z,101055.22
2023-03-15T11:23:07.219Z,101063.91
2023-03-15T11:25:53.861Z,101060.53
2023-03-15T11:28:39.806Z,101066.56
2023-03-15T11:31:27.498Z,101054.06
2023-03-15T11:34:15.028Z,101054.63
2023-03-15T11:37:08.687Z,101051.50
2023-03-15T11:40:08.922Z,101053.56
2023-03-15T11:42:57.319Z,101064.72
2023-03-15T11:45:44.147Z,101060.69
2023-03-15T11:48:51.524Z,101065.16
2023-03-15T11:51:38.866Z,101073.28
2023-03-15T11:54:25.361Z,101063.59
2023-03-15T11:57:26.436Z,101076.47
2023-03-15T12:00:17.113Z,101076.28
2023-03-15T12:03:18.274Z,101090.97
2023-03-15T12:06:06.664Z,101082.63
2023-03-15T12:08:54.323Z,101106.91
2023-03-15T12:11:41.589Z,101102.84
2023-03-15T12:14:29.650Z,101112.22
2023-03-15T12:17:36.279Z,101134.81
2023-03-15T12:20:24.537Z,101144.69
2023-03-15T12:23:18.766Z,101148.63
2023-03-15T12:26:08.016Z,101158.47
2023-03-15T12:28:54.623Z,101180.00
2023-03-15T12:31:43.935Z,101184.09
2023-03-15T12:34:38.151Z,101180.06
2023-03-15T12:37:24.733Z,101183.94
2023-03-15T12:40:26.843Z,101178.09
2023-03-15T12:43:14.392Z,101183.94
2023-03-15T12:46:00.533Z,101174.09
2023-03-15T12:49:01.956Z,101171.69
2023-03-15T12:51:54.783Z,101164.03
2023-03-15T12:54:42.974Z,101151.75
2023-03-15T12:57:30.589Z,101155.19
2023-03-15T13:00:19.195Z,101137.00
2023-03-15T13:03:05.568Z,101131.56
2023-03-15T13:06:03.359Z,101129.28
2023-03-15T13:08:51.690Z,101141.16
2023-03-15T13:11:38.508Z,101143.19
2023-03-15T13:14:37.508Z,101142.25
2023-03-15T13:17:28.051Z,101139.25
2023-03-15T13:20:20.048Z,101150.28
2023-03-15T13:23:08.417Z,101152.19
2023-03-15T13:25:58.910Z,101144.16
2023-03-15T13:28:49.379Z,101145.22
2023-03-15T13:31:35.782Z,101144.16
2023-03-15T13:34:24.083Z,101140.19
2023-03-15T13:37:15.219Z,101146.47
2023-03-15T13:40:01.621Z,101139.75
2023-03-15T13:42:47.504Z,101140.75
2023-03-15T13:45:33.351Z,101140.53
2023-03-15T13:48:19.160Z,101140.31
2023-03-15T13:51:07.272Z,101138.44
2023-03-15T13:53:53.747Z,101151.34
2023-03-15T13:56:49.232Z,101150.53
2023-03-15T13:59:36.278Z,101162.09
2023-03-15T14:02:25.005Z,101155.59
2023-03-15T14:05:11.595Z,101161.34
2023-03-15T14:07:59.201Z,101160.25
2023-03-15T14:10:45.518Z,101165.63
2023-03-15T14:13:32.757Z,101163.44
2023-03-15T14:16:29.909Z,101155.97
2023-03-15T14:19:16.837Z,101153.28
2023-03-15T14:22:03.713Z,101147.03
2023-03-15T14:24:52.016Z,101153.44
2023-03-15T14:27:38.448Z,101150.50
2023-03-15T14:30:25.459Z,101145.09
2023-03-15T14:33:23.561Z,101141.09
2023-03-15T14:36:21.510Z,101147.25
2023-03-15T14:39:13.432Z,101149.06
2023-03-15T14:42:00.719Z,101146.16
2023-03-15T14:44:46.462Z,101147.00
2023-03-15T14:47:36.271Z,101142.78
2023-03-15T14:50:27.706Z,101144.59
2023-03-15T14:53:15.595Z,101152.28
2023-03-15T14:56:01.891Z,101155.03
2023-03-15T14:58:49.562Z,101149.25
2023-03-15T15:01:35.457Z,101152.63
2023-03-15T15:04:22.071Z,101149.47
2023-03-15T15:07:07.988Z,101146.56
2023-03-15T15:09:54.216Z,101154.97
2023-03-15T15:12:40.050Z,101155.19
2023-03-15T15:15:27.475Z,101154.13
2023-03-15T15:18:14.019Z,101156.22
2023-03-15T15:21:00.337Z,101156.22
2023-03-15T15:23:57.283Z,101162.66
2023-03-15T15:26:44.071Z,101162.13
2023-03-15T15:29:29.825Z,101166.09
2023-03-15T15:32:17.094Z,101165.47
2023-03-15T15:35:02.923Z,101164.00
2023-03-15T15:37:50.024Z,101167.13
2023-03-15T15:40:36.098Z,101163.03
2023-03-15T15:43:21.928Z,101165.84
2023-03-15T15:46:09.266Z,101169.53
2023-03-15T15:48:56.310Z,101170.38
2023-03-15T15:51:45.510Z,101169.09
2023-03-15T15:54:31.615Z,101171.91
2023-03-15T15:57:17.683Z,101178.34
2023-03-15T16:00:03.722Z,101176.75
2023-03-15T16:02:58.649Z,101172.84
2023-03-15T16:05:45.832Z,101178.38
2023-03-15T16:08:32.335Z,101181.97
2023-03-15T16:11:18.134Z,101182.91
2023-03-15T16:14:04.337Z,101192.03
2023-03-15T16:16:50.748Z,101188.78
2023-03-15T16:19:36.686Z,101189.78
2023-03-15T16:22:24.221Z,101200.41
2023-03-15T16:25:11.314Z,101200.50
2023-03-15T16:27:57.534Z,101207.75
2023-03-15T16:30:46.379Z,101206.25
2023-03-15T16:33:34.596Z,101203.94
2023-03-15T16:36:21.754Z,101214.44
2023-03-15T16:39:10.358Z,101214.72
2023-03-15T16:41:56.065Z,101214.91
2023-03-15T16:44:42.421Z,101210.78
2023-03-15T16:47:28.441Z,101214.56
2023-03-15T16:50:14.563Z,101222.75
2023-03-15T16:53:01.013Z,101224.13
2023-03-15T16:55:48.405Z,101231.28
2023-03-15T16:58:34.181Z,101229.03
2023-03-15T17:01:20.122Z,101233.72
2023-03-15T17:04:07.048Z,101240.28
2023-03-15T17:06:53.452Z,101246.75
2023-03-15T17:09:39.805Z,101241.03
2023-03-15T17:12:27.465Z,101247.69
2023-03-15T17:15:13.701Z,101245.31
2023-03-15T17:18:00.542Z,101247.28
2023-03-15T17:20:46.982Z,101250.28
2023-03-15T17:23:32.729Z,101251.72
2023-03-15T17:26:19.303Z,101248.53
2023-03-15T17:29:06.864Z,101251.44
2023-03-15T17:31:53.078Z,101251.88
2023-03-15T17:34:39.280Z,101264.59
2023-03-15T17:37:25.183Z,101271.19
2023-03-15T17:40:18.077Z,101279.63
2023-03-15T17:43:04.902Z,101287.06
2023-03-15T17:45:53.061Z,101296.19
2023-03-15T17:48:39.528Z,101291.31
2023-03-15T17:51:26.047Z,101307.44
2023-03-15T17:54:13.126Z,101307.97
2023-03-15T17:56:59.848Z,101326.13
2023-03-15T17:59:46.014Z,101328.31
2023-03-15T18:02:33.694Z,101347.97
2023-03-15T18:05:20.251Z,101367.66
2023-03-15T18:08:06.280Z,101393.09
2023-03-15T18:10:52.196Z,101411.88
2023-03-15T18:13:37.963Z,101443.72
2023-03-15T18:16:24.165Z,101489.47
2023-03-15T18:19:11.769Z,101513.56
2023-03-15T18:21:57.844Z,101531.31
2023-03-15T18:24:46.963Z,101557.97
2023-03-15T18:27:33.136Z,101566.88
2023-03-15T18:30:19.676Z,101589.16
2023-03-15T18:33:05.833Z,101607.75
2023-03-15T18:35:53.483Z,101620.31
2023-03-15T18:38:39.783Z,101635.25
2023-03-15T18:41:25.816Z,101638.94
2023-03-15T18:44:12.024Z,101651.16
2023-03-15T18:46:57.959Z,101651.47
2023-03-15T18:49:43.889Z,101663.13
2023-03-15T18:52:31.321Z,101664.31
2023-03-15T18:55:17.880Z,101679.22
2023-03-15T18:58:03.853Z,101689.88
2023-03-15T19:00:49.779Z,101701.31
2023-03-15T19:03:36.241Z,101717.97
2023-03-15T19:06:22.915Z,101732.25
2023-03-15T19:09:10.022Z,101746.53
2023-03-15T19:11:56.160Z,101753.84
2023-03-15T19:14:42.104Z,101760.03
2023-03-15T19:17:28.137Z,101768.03
2023-03-15T19:20:15.282Z,101777.78
2023-03-15T19:23:01.470Z,101781.41
2023-03-15T19:25:48.834Z,101791.16
2023-03-15T19:28:34.898Z,101790.38
2023-03-15T19:31:21.740Z,101793.91
2023-03-15T19:34:07.957Z,101800.97
2023-03-15T19:36:53.702Z,101808.13
2023-03-15T19:39:45.291Z,101823.03
2023-03-15T19:42:43.836Z,101832.75
2023-03-15T19:45:34.427Z,101844.25
2023-03-15T19:48:23.128Z,101867.88
2023-03-15T19:51:09.291Z,101878.44
2023-03-15T19:53:56.504Z,101886.44
2023-03-15T19:56:42.553Z,101901.38
2023-03-15T19:59:41.871Z,101897.25
2023-03-15T20:02:33.006Z,101916.56
2023-03-15T20:05:25.500Z,101920.94
2023-03-15T20:08:14.188Z,101928.13
2023-03-15T20:14:25.088Z,101947.56
2023-03-15T20:17:15.189Z,101951.19
2023-03-15T20:20:01.318Z,101953.91
2023-03-15T20:22:54.958Z,101967.00
2023-03-15T20:25:41.035Z,101974.09
2023-03-15T20:28:33.202Z,101977.78
2023-03-15T20:31:27.005Z,101994.41
2023-03-15T20:34:20.293Z,101996.25
2023-03-15T20:37:06.766Z,102000.69
2023-03-15T20:39:56.642Z,102015.53
2023-03-15T20:42:42.986Z,102013.09
2023-03-15T20:45:35.140Z,102019.25
2023-03-15T20:48:26.583Z,102019.41
2023-03-15T20:51:20.517Z,102030.84
2023-03-15T20:54:06.687Z,102033.50
2023-03-15T20:56:52.476Z,102031.00
2023-03-15T20:59:40.506Z,102032.00
2023-03-15T21:02:32.493Z,102043.38
2023-03-15T21:05:20.734Z,102042.63
2023-03-15T21:08:30.529Z,102050.56
2023-03-15T21:11:31.201Z,102050.75
2023-03-15T21:14:26.326Z,102048.22
2023-03-15T21:17:14.296Z,102052.63
2023-03-15T21:20:00.654Z,102049.25
2023-03-15T21:22:46.756Z,102053.59
2023-03-15T21:25:33.975Z,102052.03
2023-03-15T21:28:19.753Z,102046.91
2023-03-15T21:31:05.701Z,102055.72
2023-03-15T21:33:51.574Z,102054.84
2023-03-15T21:36:37.410Z,102059.25
2023-03-15T21:39:23.249Z,102056.81
2023-03-15T21:42:10.475Z,102060.25
2023-03-15T21:44:56.883Z,102064.72
2023-03-15T21:47:45.864Z,102071.75
2023-03-15T21:50:31.977Z,102074.50
2023-03-15T21:53:17.949Z,102080.72
2023-03-15T21:56:05.073Z,102085.97
2023-03-15T21:58:52.548Z,102081.78
2023-03-15T22:01:38.648Z,102089.59
2023-03-15T22:04:25.056Z,102091.38
2023-03-15T22:07:12.590Z,102093.31
2023-03-15T22:09:58.312Z,102102.88
2023-03-15T22:12:44.015Z,102104.75
2023-03-15T22:15:31.326Z,102110.91
2023-03-15T22:18:17.569Z,102112.72
2023-03-15T22:21:03.300Z,102112.72
2023-03-15T22:23:49.443Z,102118.81
2023-03-15T22:26:35.298Z,102119.72
2023-03-15T22:29:21.165Z,102126.69
2023-03-15T22:32:09.036Z,102126.84
2023-03-15T22:34:54.947Z,102127.81
2023-03-15T22:37:41.024Z,102133.91
2023-03-15T22:40:27.949Z,102131.41
2023-03-15T22:43:14.164Z,102136.56
2023-03-15T22:46:00.246Z,102131.59
2023-03-15T22:48:47.687Z,102138.59
2023-03-15T22:51:33.409Z,102138.66
2023-03-15T22:54:19.446Z,102140.53
2023-03-15T22:57:05.635Z,102137.94
2023-03-15T22:59:51.722Z,102144.91
2023-03-15T23:02:37.595Z,102153.56
2023-03-15T23:05:25.107Z,102148.38
2023-03-15T23:08:11.262Z,102149.31
2023-03-15T23:10:57.371Z,102142.34
2023-03-15T23:13:48.153Z,102151.94
2023-03-15T23:16:34.271Z,102154.63
2023-03-15T23:19:20.386Z,102152.09
2023-03-15T23:22:08.332Z,102150.41
2023-03-15T23:24:57.758Z,102154.78
2023-03-15T23:27:43.798Z,102163.50
2023-03-15T23:30:34.416Z,102168.69
2023-03-15T23:33:21.392Z,102172.19
2023-03-15T23:36:07.857Z,102166.19
2023-03-15T23:38:55.090Z,102174.97
2023-03-15T23:41:41.245Z,102175.88
2023-03-15T23:44:27.175Z,102177.66
2023-03-15T23:47:13.224Z,102186.44
2023-03-15T23:49:59.221Z,102183.03
2023-03-15T23:52:45.157Z,102192.66
2023-03-15T23:55:33.200Z,102189.19
2023-03-15T23:58:19.287Z,102187.47
